Time;durP1;ratioP1;P1;durP2;ratioP2;P2;SDS_P1;SDS_P2;PMS_P1;PMS_P2;Temp;Humidity;BMP_temperature;BMP_pressure;BME280_temperature;BME280_humidity;BME280_pressure;Samples;Min_cycle;Max_cycle;Signal;HPM_P1;HPM_P2
2021/06/05 00:01:33;;;;;;;11.50;2.90;;;16.00;73.00;;;;;;6242514;23;20454;-71
2021/06/05 00:04:00;;;;;;;9.23;2.97;;;16.00;72.90;;;;;;6243490;23;20007;-71
2021/06/05 00:06:28;;;;;;;9.05;3.35;;;16.00;72.90;;;;;;6243294;23;19996;-70
2021/06/05 00:08:55;;;;;;;11.55;2.40;;;16.00;72.90;;;;;;6242756;23;20690;-71
2021/06/05 00:11:24;;;;;;;11.55;3.58;;;16.00;73.00;;;;;;6243474;23;20038;-71
2021/06/05 00:13:55;;;;;;;7.97;3.03;;;16.00;73.00;;;;;;6242082;23;20012;-71
2021/06/05 00:16:25;;;;;;;9.20;2.92;;;16.00;73.00;;;;;;6243452;23;20000;-71
2021/06/05 00:18:53;;;;;;;9.07;3.25;;;16.00;73.20;;;;;;6214929;23;20051;-71
2021/06/05 00:21:21;;;;;;;13.07;3.10;;;16.00;73.20;;;;;;6243699;23;20798;-71
2021/06/05 00:23:48;;;;;;;10.20;3.78;;;16.00;73.20;;;;;;6243100;23;20002;-71
2021/06/05 00:26:15;;;;;;;12.75;3.97;;;16.00;73.30;;;;;;6242462;23;20024;-71
2021/06/05 00:28:42;;;;;;;16.17;4.30;;;16.00;73.30;;;;;;6243381;23;20007;-71
2021/06/05 00:31:08;;;;;;;10.35;3.60;;;16.00;73.30;;;;;;6242057;23;20404;-71
2021/06/05 00:33:35;;;;;;;10.93;3.60;;;16.00;73.30;;;;;;6243138;23;19996;-71
2021/06/05 00:36:08;;;;;;;13.10;4.25;;;16.00;73.40;;;;;;6242322;23;20004;-71
2021/06/05 00:38:36;;;;;;;16.70;4.90;;;15.90;73.30;;;;;;6243084;23;20011;-72
2021/06/05 00:41:04;;;;;;;12.65;4.28;;;15.90;73.30;;;;;;6242667;23;20049;-71
2021/06/05 00:43:37;;;;;;;12.75;4.05;;;16.00;73.40;;;;;;6242890;23;20537;-71
2021/06/05 00:46:04;;;;;;;12.95;4.05;;;15.90;73.40;;;;;;6243494;23;20011;-71
2021/06/05 00:48:30;;;;;;;11.85;3.80;;;15.90;73.30;;;;;;6241748;23;20427;-71
2021/06/05 00:50:58;;;;;;;10.18;4.72;;;15.90;73.30;;;;;;6243053;23;20011;-71
2021/06/05 00:53:28;;;;;;;14.07;4.15;;;15.90;73.20;;;;;;6241680;23;20071;-71
2021/06/05 00:55:59;;;;;;;11.70;5.00;;;15.90;73.20;;;;;;6243645;23;20067;-71
2021/06/05 00:58:27;;;;;;;12.07;4.80;;;15.90;73.10;;;;;;6242388;23;20004;-71
2021/06/05 01:01:00;;;;;;;15.50;6.05;;;15.90;73.00;;;;;;6242268;23;20364;-71
2021/06/05 01:03:28;;;;;;;14.23;4.25;;;15.90;72.90;;;;;;6243100;23;20004;-71
2021/06/05 01:06:01;;;;;;;11.98;4.05;;;15.90;72.80;;;;;;6241640;23;20071;-71
2021/06/05 01:08:44;;;;;;;9.52;4.25;;;15.90;72.80;;;;;;6237889;23;20050;-71
2021/06/05 01:11:11;;;;;;;12.82;4.10;;;15.90;72.80;;;;;;6240168;23;20007;-72
2021/06/05 01:13:51;;;;;;;11.45;4.22;;;15.90;72.70;;;;;;6240774;23;20000;-71
2021/06/05 01:16:21;;;;;;;12.43;4.57;;;15.80;72.50;;;;;;6239667;23;20309;-71
2021/06/05 01:18:53;;;;;;;10.80;4.43;;;15.80;72.40;;;;;;6239937;23;20388;-72
2021/06/05 01:22:02;;;;;;;11.55;4.93;;;15.80;72.50;;;;;;6214039;23;20333;-71
2021/06/05 01:25:06;;;;;;;7.22;4.57;;;15.80;72.60;;;;;;6235033;23;20082;-72
2021/06/05 01:27:38;;;;;;;14.60;5.38;;;15.80;72.60;;;;;;6240716;23;20035;-71
2021/06/05 01:30:19;;;;;;;8.80;5.00;;;15.80;72.50;;;;;;6242587;23;20006;-71
2021/06/05 01:32:46;;;;;;;8.55;4.15;;;15.80;73.20;;;;;;6241848;23;20767;-72
2021/06/05 01:35:15;;;;;;;17.55;4.97;;;15.80;72.50;;;;;;6242196;23;20015;-72
2021/06/05 01:37:42;;;;;;;17.35;7.15;;;15.70;72.30;;;;;;6242753;23;20558;-72
2021/06/05 01:40:14;;;;;;;10.18;4.60;;;15.70;72.30;;;;;;6214407;23;20000;-71
2021/06/05 01:42:42;;;;;;;11.05;4.85;;;15.70;72.30;;;;;;6242730;23;20000;-72
2021/06/05 01:45:16;;;;;;;11.35;4.72;;;15.70;72.30;;;;;;6241204;23;20004;-72
2021/06/05 01:47:43;;;;;;;15.23;4.68;;;15.70;72.30;;;;;;6242609;23;20007;-71
2021/06/05 01:50:12;;;;;;;12.82;4.45;;;15.70;72.40;;;;;;6241586;23;20403;-71
2021/06/05 01:52:40;;;;;;;13.25;4.82;;;15.70;72.40;;;;;;6242136;23;20011;-72
2021/06/05 01:55:14;;;;;;;9.63;4.18;;;15.70;72.40;;;;;;6242660;23;20008;-72
2021/06/05 01:57:48;;;;;;;11.90;4.35;;;15.70;72.40;;;;;;6241350;23;20000;-71
2021/06/05 02:00:23;;;;;;;8.68;3.97;;;15.60;73.00;;;;;;6242451;23;20003;-71
2021/06/05 02:02:50;;;;;;;11.90;3.70;;;15.60;72.20;;;;;;6241262;23;19996;-72
2021/06/05 02:05:19;;;;;;;10.63;3.67;;;15.60;72.30;;;;;;6242437;23;20005;-71
2021/06/05 02:07:46;;;;;;;11.13;4.13;;;15.60;72.40;;;;;;6241956;23;20297;-72
2021/06/05 02:10:17;;;;;;;10.20;3.60;;;15.60;72.50;;;;;;6241564;23;20000;-72
2021/06/05 02:12:43;;;;;;;12.93;3.70;;;15.60;72.60;;;;;;6215706;23;20032;-71
2021/06/05 02:15:47;;;;;;;11.48;4.35;;;15.60;72.70;;;;;;6240870;23;20008;-72
2021/06/05 02:18:18;;;;;;;18.25;4.32;;;15.60;72.90;;;;;;6242137;23;20028;-71
2021/06/05 02:21:02;;;;;;;10.55;3.83;;;15.60;73.00;;;;;;6241730;23;20050;-71
2021/06/05 02:23:53;;;;;;;16.23;6.40;;;15.60;73.00;;;;;;6241088;23;20019;-71
2021/06/05 02:26:26;;;;;;;12.55;5.78;;;15.60;73.00;;;;;;6242180;23;20012;-71
2021/06/05 02:28:58;;;;;;;11.07;5.70;;;15.60;73.10;;;;;;6214256;23;20327;-71
2021/06/05 02:31:26;;;;;;;15.27;5.45;;;15.60;73.10;;;;;;6242015;23;20305;-72
2021/06/05 02:33:53;;;;;;;11.50;4.50;;;15.60;73.00;;;;;;6241791;23;20027;-72
2021/06/05 02:36:21;;;;;;;11.23;4.28;;;15.60;73.00;;;;;;6242217;23;20406;-72
2021/06/05 02:38:49;;;;;;;14.48;3.70;;;15.60;72.90;;;;;;6244563;23;20075;-72
2021/06/05 02:41:19;;;;;;;8.50;4.00;;;15.60;72.80;;;;;;6242946;23;20423;-71
2021/06/05 02:43:49;;;;;;;11.88;4.28;;;15.50;72.60;;;;;;6244199;23;20127;-72
2021/06/05 02:46:23;;;;;;;6.55;2.88;;;15.50;72.50;;;;;;6243150;23;20108;-72
2021/06/05 02:48:56;;;;;;;8.75;3.08;;;15.50;72.40;;;;;;6243662;23;20011;-72
2021/06/05 02:51:27;;;;;;;8.32;3.53;;;15.50;72.30;;;;;;6244481;23;20000;-72
2021/06/05 02:53:54;;;;;;;7.00;2.75;;;15.50;72.20;;;;;;6242561;23;20051;-73
2021/06/05 02:56:21;;;;;;;8.43;3.30;;;15.50;72.10;;;;;;6244119;23;20001;-72
2021/06/05 02:58:47;;;;;;;14.05;3.75;;;15.50;72.00;;;;;;6242984;23;20045;-72
2021/06/05 03:01:15;;;;;;;7.90;3.13;;;15.50;72.10;;;;;;6244023;23;20023;-71
2021/06/05 03:03:41;;;;;;;7.75;3.55;;;15.50;72.00;;;;;;6243216;23;20035;-72
2021/06/05 03:06:09;;;;;;;7.55;3.15;;;15.40;71.90;;;;;;6243735;23;20008;-70
2021/06/05 03:08:39;;;;;;;8.18;3.85;;;15.40;72.00;;;;;;6244450;23;20311;-74
2021/06/05 03:11:11;;;;;;;15.52;4.72;;;15.40;71.90;;;;;;6242919;23;20493;-72
2021/06/05 03:13:39;;;;;;;12.80;7.43;;;15.40;71.90;;;;;;6244181;23;19996;-72
2021/06/05 03:16:06;;;;;;;18.02;8.93;;;15.40;71.80;;;;;;6242559;23;20411;-72
2021/06/05 03:18:34;;;;;;;15.30;9.05;;;15.40;71.80;;;;;;6243769;23;20075;-71
2021/06/05 03:21:01;;;;;;;11.50;8.88;;;15.40;71.70;;;;;;6242860;23;20007;-72
2021/06/05 03:23:31;;;;;;;14.82;6.95;;;15.40;71.60;;;;;;6243344;23;20000;-72
2021/06/05 03:25:58;;;;;;;9.40;5.20;;;15.40;71.50;;;;;;6243529;23;20004;-72
2021/06/05 03:28:28;;;;;;;8.35;4.72;;;15.40;71.40;;;;;;6242841;23;20026;-71
2021/06/05 03:30:56;;;;;;;15.85;4.70;;;15.40;71.30;;;;;;6243556;23;20000;-71
2021/06/05 03:33:23;;;;;;;8.55;4.00;;;15.40;71.20;;;;;;6242413;23;19996;-72
2021/06/05 03:35:51;;;;;;;9.60;4.38;;;15.30;71.10;;;;;;6243754;23;20079;-72
2021/06/05 03:38:20;;;;;;;10.45;4.70;;;15.30;71.00;;;;;;6242744;23;20011;-72
2021/06/05 03:40:47;;;;;;;11.05;3.90;;;15.30;70.90;;;;;;6243388;23;20004;-71
2021/06/05 03:43:14;;;;;;;8.32;3.85;;;15.30;70.90;;;;;;6243778;23;19996;-71
2021/06/05 03:45:41;;;;;;;6.25;3.47;;;15.30;70.80;;;;;;6242427;23;20058;-71
2021/06/05 03:48:09;;;;;;;7.70;3.90;;;15.30;70.70;;;;;;6243396;23;20420;-74
2021/06/05 03:50:39;;;;;;;7.38;3.92;;;15.20;70.50;;;;;;6243018;23;20079;-72
2021/06/05 03:53:06;;;;;;;14.52;5.65;;;15.20;70.40;;;;;;6243715;23;20012;-72
2021/06/05 03:55:33;;;;;;;18.63;11.60;;;15.20;70.30;;;;;;6242440;23;20070;-71
2021/06/05 03:58:02;;;;;;;18.30;12.60;;;15.20;70.30;;;;;;6216230;23;20352;-69
2021/06/05 04:00:34;;;;;;;18.83;11.20;;;15.20;70.10;;;;;;6243244;23;20005;-70
2021/06/05 04:03:01;;;;;;;14.18;9.10;;;15.10;70.00;;;;;;6242330;23;19992;-70
2021/06/05 04:05:29;;;;;;;11.18;6.63;;;15.10;70.00;;;;;;6243469;23;19992;-70
2021/06/05 04:07:56;;;;;;;8.05;5.25;;;15.10;69.90;;;;;;6242131;23;20000;-70
2021/06/05 04:10:25;;;;;;;12.85;5.20;;;15.10;69.70;;;;;;6243407;23;19996;-70
2021/06/05 04:12:52;;;;;;;8.63;5.90;;;15.10;69.70;;;;;;6242507;23;20380;-70
2021/06/05 04:15:23;;;;;;;10.60;4.50;;;15.10;69.70;;;;;;6243034;23;20046;-70
2021/06/05 04:18:07;;;;;;;12.15;3.90;;;15.10;69.80;;;;;;6243462;23;20000;-69
2021/06/05 04:20:37;;;;;;;14.63;4.68;;;15.00;69.80;;;;;;6242116;23;20027;-70
2021/06/05 04:23:08;;;;;;;10.70;4.35;;;15.00;69.90;;;;;;6243502;23;20000;-71
2021/06/05 04:25:35;;;;;;;8.82;3.92;;;15.00;70.00;;;;;;6211363;23;20092;-69
2021/06/05 04:28:03;;;;;;;9.05;3.92;;;15.00;70.00;;;;;;6241570;23;20443;-70
2021/06/05 04:30:31;;;;;;;13.77;4.43;;;15.00;70.20;;;;;;6242738;23;20085;-70
2021/06/05 04:32:58;;;;;;;11.65;3.47;;;15.00;70.20;;;;;;6242432;23;19996;-69
2021/06/05 04:35:25;;;;;;;9.65;3.53;;;15.00;70.30;;;;;;6243604;23;20019;-71
2021/06/05 04:37:52;;;;;;;9.05;3.47;;;15.00;70.40;;;;;;6241798;23;20438;-70
2021/06/05 04:40:21;;;;;;;10.05;4.10;;;15.00;70.60;;;;;;6243164;23;20327;-70
2021/06/05 04:42:48;;;;;;;9.05;3.92;;;14.90;70.60;;;;;;6242022;23;20058;-72
2021/06/05 04:45:16;;;;;;;8.57;3.78;;;15.00;70.80;;;;;;6242938;23;20067;-71
2021/06/05 04:47:42;;;;;;;9.38;3.63;;;15.00;70.80;;;;;;6242334;23;20000;-71
2021/06/05 04:50:11;;;;;;;11.10;3.17;;;15.00;70.80;;;;;;6242839;23;20008;-70
2021/06/05 04:52:37;;;;;;;7.95;3.10;;;15.00;70.80;;;;;;6243021;23;20007;-71
2021/06/05 04:55:06;;;;;;;11.02;3.85;;;14.90;70.70;;;;;;6239498;23;20423;-70
2021/06/05 04:57:33;;;;;;;8.07;5.15;;;15.00;70.70;;;;;;6241790;23;20321;-72
2021/06/05 05:00:00;;;;;;;28.17;17.00;;;14.90;70.60;;;;;;6240248;23;20004;-75
2021/06/05 05:02:27;;;;;;;27.25;17.80;;;14.90;70.60;;;;;;6241834;23;19997;-69
2021/06/05 05:04:54;;;;;;;18.33;11.35;;;14.90;70.50;;;;;;6241309;23;20001;-74
2021/06/05 05:07:21;;;;;;;12.25;7.07;;;14.90;70.10;;;;;;6241495;23;20004;-72
2021/06/05 05:09:47;;;;;;;14.25;6.55;;;14.90;70.00;;;;;;6241742;23;20011;-74
2021/06/05 05:12:14;;;;;;;10.65;5.80;;;14.90;70.10;;;;;;6240664;23;19992;-74
2021/06/05 05:14:40;;;;;;;11.35;4.47;;;14.80;70.20;;;;;;6241841;23;20012;-70
2021/06/05 05:17:07;;;;;;;7.65;4.07;;;14.80;70.20;;;;;;6241274;23;20054;-73
2021/06/05 05:19:34;;;;;;;6.20;3.72;;;14.80;70.20;;;;;;6241402;23;20091;-70
2021/06/05 05:22:00;;;;;;;13.75;4.30;;;14.80;70.20;;;;;;6240887;23;20050;-71
2021/06/05 05:24:27;;;;;;;12.15;5.85;;;14.80;70.20;;;;;;6240901;23;20012;-72
2021/06/05 05:27:33;;;;;;;11.05;4.53;;;14.80;70.30;;;;;;6239848;23;20126;-73
2021/06/05 05:30:40;;;;;;;11.52;5.28;;;14.90;70.40;;;;;;6237531;23;20008;-74
2021/06/05 05:33:46;;;;;;;15.88;4.97;;;14.80;70.20;;;;;;6239878;23;20423;-73
2021/06/05 05:36:22;;;;;;;9.00;4.20;;;14.80;70.20;;;;;;6240714;23;20436;-84
2021/06/05 05:38:50;;;;;;;19.63;5.63;;;14.80;70.00;;;;;;6214156;23;20004;-76
2021/06/05 05:41:56;;;;;;;13.35;6.00;;;14.80;68.70;;;;;;6240575;23;20050;-75
2021/06/05 05:44:42;;;;;;;12.43;5.05;;;14.70;68.70;;;;;;6240411;23;20000;-80
2021/06/05 05:47:09;;;;;;;12.82;5.10;;;14.60;69.00;;;;;;6243339;23;20411;-75
2021/06/05 05:49:35;;;;;;;10.60;4.47;;;14.50;69.20;;;;;;6242230;23;20062;-75
2021/06/05 05:52:02;;;;;;;10.25;4.82;;;14.40;69.20;;;;;;6240410;23;19999;-74
2021/06/05 05:54:29;;;;;;;9.18;4.15;;;14.30;69.20;;;;;;6241591;23;20423;-75
2021/06/05 05:56:55;;;;;;;6.45;3.42;;;14.20;69.80;;;;;;6240996;23;19996;-75
2021/06/05 05:59:22;;;;;;;9.68;4.32;;;14.10;70.00;;;;;;6241465;23;20413;-76
2021/06/05 06:01:48;;;;;;;11.88;4.78;;;14.10;70.10;;;;;;6241465;23;20121;-75
2021/06/05 06:04:15;;;;;;;9.30;4.75;;;14.00;70.20;;;;;;6240448;23;20691;-74
2021/06/05 06:06:42;;;;;;;8.38;3.92;;;14.00;70.50;;;;;;6242225;23;19996;-73
2021/06/05 06:09:09;;;;;;;11.38;5.30;;;13.90;71.10;;;;;;6239231;23;20080;-74
2021/06/05 06:11:36;;;;;;;23.50;12.98;;;13.90;71.60;;;;;;6240880;23;20008;-74
2021/06/05 06:14:02;;;;;;;25.45;15.57;;;13.90;71.30;;;;;;6240677;23;20019;-73
2021/06/05 06:16:31;;;;;;;20.45;13.88;;;14.00;71.40;;;;;;6241832;23;19996;-73
2021/06/05 06:18:57;;;;;;;18.02;10.85;;;14.00;71.30;;;;;;6241006;23;20053;-72
2021/06/05 06:21:24;;;;;;;18.10;9.52;;;14.10;71.10;;;;;;6240505;23;19996;-81
2021/06/05 06:23:51;;;;;;;13.05;5.25;;;14.10;70.90;;;;;;6242615;23;20003;-74
2021/06/05 06:26:24;;;;;;;15.55;7.00;;;14.10;70.10;;;;;;6239659;23;20039;-76
2021/06/05 06:28:52;;;;;;;11.25;4.95;;;14.10;70.50;;;;;;6241713;23;20004;-79
2021/06/05 06:31:20;;;;;;;9.52;4.65;;;14.10;70.80;;;;;;6239942;23;20008;-74
2021/06/05 06:33:48;;;;;;;12.23;7.03;;;14.10;70.90;;;;;;6241142;23;20023;-76
2021/06/05 06:36:16;;;;;;;10.05;5.03;;;14.10;70.90;;;;;;6241039;23;20027;-76
2021/06/05 06:38:45;;;;;;;8.73;5.10;;;14.20;70.90;;;;;;6240623;23;20000;-76
2021/06/05 06:41:15;;;;;;;9.25;5.82;;;14.20;71.00;;;;;;6241627;23;20083;-72
2021/06/05 06:43:43;;;;;;;11.35;5.55;;;14.20;71.00;;;;;;6240145;23;20000;-71
2021/06/05 06:46:18;;;;;;;8.50;5.80;;;14.30;71.00;;;;;;6241876;23;19996;-72
2021/06/05 06:48:45;;;;;;;10.88;5.97;;;14.30;71.10;;;;;;6240239;23;19996;-71
2021/06/05 06:51:11;;;;;;;9.63;5.63;;;14.30;71.20;;;;;;6241497;23;20004;-70
2021/06/05 06:53:38;;;;;;;8.68;4.88;;;14.30;71.30;;;;;;6240965;23;20008;-73
2021/06/05 06:56:06;;;;;;;7.88;4.95;;;14.30;71.40;;;;;;6240446;23;20008;-74
2021/06/05 06:58:34;;;;;;;9.43;4.90;;;14.30;71.60;;;;;;6241286;23;20538;-73
2021/06/05 07:01:01;;;;;;;7.30;4.18;;;14.30;71.70;;;;;;6240424;23;20047;-74
2021/06/05 07:03:27;;;;;;;10.95;4.60;;;14.40;71.80;;;;;;6241810;23;20001;-73
2021/06/05 07:05:54;;;;;;;8.43;4.13;;;14.40;72.00;;;;;;6213121;23;20054;-73
2021/06/05 07:08:22;;;;;;;10.70;4.90;;;14.40;72.10;;;;;;6241418;23;20000;-74
2021/06/05 07:10:54;;;;;;;11.88;4.82;;;14.30;72.30;;;;;;6240572;23;20442;-74
2021/06/05 07:13:21;;;;;;;8.98;4.55;;;14.40;72.40;;;;;;6241353;23;20008;-73
2021/06/05 07:15:48;;;;;;;9.85;4.53;;;14.40;72.60;;;;;;6214186;23;20062;-72
2021/06/05 07:18:17;;;;;;;8.75;4.32;;;14.40;72.70;;;;;;6240144;23;20007;-72
2021/06/05 07:20:49;;;;;;;11.15;4.38;;;14.50;72.90;;;;;;6241637;23;19996;-69
2021/06/05 07:23:18;;;;;;;9.70;4.10;;;14.50;73.20;;;;;;6242161;23;20004;-72
2021/06/05 07:25:45;;;;;;;8.30;4.68;;;14.50;73.90;;;;;;6243267;23;20004;-70
2021/06/05 07:28:19;;;;;;;9.35;4.50;;;14.60;73.40;;;;;;6241857;23;20008;-73
2021/06/05 07:30:47;;;;;;;8.40;4.88;;;14.60;73.40;;;;;;6242559;23;20007;-71
2021/06/05 07:33:14;;;;;;;7.18;4.05;;;14.60;73.60;;;;;;6242581;23;20004;-73
2021/06/05 07:35:41;;;;;;;10.40;4.88;;;14.70;73.70;;;;;;6241881;23;20008;-73
2021/06/05 07:38:08;;;;;;;7.82;3.92;;;14.70;73.80;;;;;;6216129;23;20000;-73
2021/06/05 07:40:35;;;;;;;10.68;3.95;;;14.80;73.90;;;;;;6241506;23;20035;-72
2021/06/05 07:43:03;;;;;;;10.10;4.45;;;14.80;74.00;;;;;;6243723;23;20334;-73
2021/06/05 07:45:29;;;;;;;10.25;4.50;;;14.80;74.10;;;;;;6242715;23;20079;-72
2021/06/05 07:47:56;;;;;;;11.38;3.72;;;14.90;74.30;;;;;;6242076;23;19996;-74
2021/06/05 07:50:24;;;;;;;6.72;3.85;;;14.90;74.30;;;;;;6242651;23;20388;-73
2021/06/05 07:52:50;;;;;;;13.10;4.47;;;15.00;74.50;;;;;;6242224;23;20049;-73
2021/06/05 07:55:17;;;;;;;10.43;3.60;;;15.00;74.60;;;;;;6242532;23;20018;-73
2021/06/05 07:57:44;;;;;;;6.53;3.33;;;15.00;74.70;;;;;;6242591;23;20000;-73
2021/06/05 08:00:20;;;;;;;6.97;3.78;;;15.10;75.00;;;;;;6242881;23;20105;-73
2021/06/05 08:02:46;;;;;;;7.07;3.55;;;15.10;75.00;;;;;;6242474;23;20000;-73
2021/06/05 08:05:14;;;;;;;8.43;3.60;;;15.10;75.10;;;;;;6242204;23;20035;-73
2021/06/05 08:07:40;;;;;;;10.32;3.78;;;15.10;75.20;;;;;;6242895;23;20003;-73
2021/06/05 08:10:09;;;;;;;10.85;3.30;;;15.20;75.40;;;;;;6241451;23;19996;-73
2021/06/05 08:12:35;;;;;;;6.25;3.67;;;15.20;75.40;;;;;;6242725;23;20004;-73
2021/06/05 08:15:03;;;;;;;7.03;4.05;;;15.20;75.50;;;;;;6241533;23;20427;-73
2021/06/05 08:17:30;;;;;;;8.48;3.80;;;15.30;75.70;;;;;;6242330;23;20046;-72
2021/06/05 08:19:57;;;;;;;7.22;4.30;;;15.30;75.60;;;;;;6243059;23;19997;-71
2021/06/05 08:22:26;;;;;;;7.10;4.28;;;15.40;75.70;;;;;;6241767;23;20000;-72
2021/06/05 08:24:53;;;;;;;12.85;4.25;;;15.40;75.70;;;;;;6242448;23;20004;-71
2021/06/05 08:27:21;;;;;;;5.30;3.50;;;15.40;75.60;;;;;;6241551;23;20055;-70
2021/06/05 08:29:47;;;;;;;7.20;5.15;;;15.50;75.70;;;;;;6242697;23;20486;-72
2021/06/05 08:32:15;;;;;;;9.40;3.58;;;15.50;75.70;;;;;;6241258;23;20000;-72
2021/06/05 08:34:41;;;;;;;15.10;5.82;;;15.50;75.70;;;;;;6242408;23;20091;-72
2021/06/05 08:37:08;;;;;;;10.20;5.05;;;15.60;75.80;;;;;;6241328;23;20336;-70
2021/06/05 08:39:34;;;;;;;11.10;4.35;;;15.60;76.40;;;;;;6242384;23;19996;-73
2021/06/05 08:42:03;;;;;;;7.72;4.53;;;15.60;75.60;;;;;;6242201;23;20431;-70
2021/06/05 08:44:35;;;;;;;5.82;4.20;;;15.70;75.50;;;;;;6241316;23;20071;-70
2021/06/05 08:47:18;;;;;;;8.55;4.43;;;15.80;75.40;;;;;;6242307;23;20004;-70
2021/06/05 08:49:47;;;;;;;6.22;4.20;;;15.80;75.30;;;;;;6240992;23;20008;-70
2021/06/05 08:52:28;;;;;;;11.82;4.32;;;15.80;75.00;;;;;;6242251;23;20023;-73
2021/06/05 08:55:20;;;;;;;9.90;4.90;;;15.90;74.80;;;;;;6242424;23;20075;-71
2021/06/05 08:58:16;;;;;;;7.95;4.68;;;16.00;74.30;;;;;;6241540;23;20004;-72
2021/06/05 09:00:46;;;;;;;9.20;4.37;;;16.00;73.50;;;;;;6198421;23;20004;-72
2021/06/05 09:03:19;;;;;;;8.20;4.55;;;16.00;72.80;;;;;;6241910;23;20442;-73
2021/06/05 09:05:55;;;;;;;9.98;5.88;;;16.10;72.80;;;;;;6241593;23;20007;-73
2021/06/05 09:08:22;;;;;;;12.20;7.38;;;16.10;72.50;;;;;;6242204;23;20011;-73
2021/06/05 09:10:53;;;;;;;13.40;7.18;;;16.20;72.60;;;;;;6240464;23;20094;-72
2021/06/05 09:13:20;;;;;;;15.90;8.25;;;16.20;72.40;;;;;;6242415;23;20154;-71
2021/06/05 09:15:47;;;;;;;13.27;7.88;;;16.30;72.50;;;;;;6213524;23;20149;-73
2021/06/05 09:18:14;;;;;;;16.58;8.95;;;16.30;72.40;;;;;;6241793;23;20085;-72
2021/06/05 09:20:45;;;;;;;16.33;9.27;;;16.30;72.10;;;;;;6242088;23;20006;-73
2021/06/05 09:23:24;;;;;;;19.25;10.40;;;16.40;72.00;;;;;;6241256;23;19992;-72
2021/06/05 09:25:52;;;;;;;17.77;11.70;;;16.50;71.30;;;;;;6242125;23;20435;-71
2021/06/05 09:28:31;;;;;;;21.33;12.85;;;16.60;70.80;;;;;;6239872;23;20073;-73
2021/06/05 09:31:30;;;;;;;21.38;12.75;;;16.60;70.70;;;;;;6242199;23;20067;-74
2021/06/05 09:33:56;;;;;;;18.63;11.57;;;16.70;70.50;;;;;;6190973;23;20008;-73
2021/06/05 09:36:31;;;;;;;16.48;11.35;;;16.70;70.10;;;;;;6240953;23;20412;-73
2021/06/05 09:39:10;;;;;;;18.00;11.48;;;16.80;69.70;;;;;;6242350;23;20511;-73
2021/06/05 09:41:36;;;;;;;18.83;11.20;;;16.90;70.40;;;;;;6240712;23;20428;-73
2021/06/05 09:44:21;;;;;;;15.90;10.77;;;17.00;69.70;;;;;;6241503;23;19996;-73
2021/06/05 09:46:57;;;;;;;12.52;10.00;;;17.00;68.60;;;;;;6241495;23;20424;-72
2021/06/05 09:49:30;;;;;;;18.40;10.18;;;17.00;67.90;;;;;;6240928;23;20000;-73
2021/06/05 09:52:08;;;;;;;19.98;10.98;;;17.10;67.70;;;;;;6241497;23;20000;-73
2021/06/05 09:54:56;;;;;;;13.75;8.80;;;17.20;68.00;;;;;;6240470;23;20706;-73
2021/06/05 09:57:32;;;;;;;14.27;9.75;;;17.20;67.20;;;;;;6241320;23;20031;-73
2021/06/05 10:00:01;;;;;;;13.60;8.95;;;17.40;66.80;;;;;;6241855;23;20059;-74
2021/06/05 10:02:29;;;;;;;15.90;9.40;;;17.40;66.80;;;;;;6240420;23;19993;-73
2021/06/05 10:05:17;;;;;;;14.85;9.98;;;17.50;66.40;;;;;;6241882;23;20441;-73
2021/06/05 10:07:44;;;;;;;15.57;8.43;;;17.60;66.20;;;;;;6240088;23;20684;-73
2021/06/05 10:10:28;;;;;;;13.77;8.20;;;17.60;65.40;;;;;;6241579;23;19996;-74
2021/06/05 10:12:57;;;;;;;15.50;8.43;;;17.70;64.90;;;;;;6242173;23;20000;-74
2021/06/05 10:15:35;;;;;;;18.00;9.82;;;17.80;64.90;;;;;;6240096;23;20004;-73
2021/06/05 10:18:31;;;;;;;11.25;9.02;;;17.80;64.30;;;;;;6241320;23;20000;-74
2021/06/05 10:21:26;;;;;;;13.75;8.32;;;18.00;64.40;;;;;;6238297;23;20011;-74
2021/06/05 10:24:00;;;;;;;19.23;9.38;;;18.00;64.20;;;;;;6240673;23;20442;-73
2021/06/05 10:26:35;;;;;;;17.95;10.40;;;18.10;64.10;;;;;;6241350;23;20047;-74
2021/06/05 10:29:32;;;;;;;18.52;8.52;;;18.20;63.80;;;;;;6240506;23;20019;-74
2021/06/05 10:32:02;;;;;;;16.15;8.52;;;18.20;63.00;;;;;;6224813;23;20030;-73
2021/06/05 10:34:57;;;;;;;15.20;8.88;;;18.30;62.40;;;;;;6241234;23;20077;-74
2021/06/05 10:37:28;;;;;;;24.03;9.57;;;18.40;61.70;;;;;;6224532;23;20389;-75
2021/06/05 10:39:57;;;;;;;14.55;8.68;;;18.50;62.10;;;;;;6241627;23;20420;-74
2021/06/05 10:42:32;;;;;;;18.52;8.65;;;18.50;61.30;;;;;;6240791;23;20001;-75
2021/06/05 10:44:59;;;;;;;14.73;7.70;;;18.60;60.60;;;;;;6240813;23;20390;-74
2021/06/05 10:47:30;;;;;;;16.75;8.20;;;18.70;59.20;;;;;;6240629;23;20032;-73
2021/06/05 10:50:14;;;;;;;16.90;7.53;;;18.70;59.70;;;;;;6240509;23;19997;-74
2021/06/05 10:53:01;;;;;;;16.23;7.60;;;18.80;58.20;;;;;;6241556;23;20075;-74
2021/06/05 10:55:38;;;;;;;12.15;6.43;;;18.90;57.00;;;;;;6240075;23;20012;-75
2021/06/05 10:58:19;;;;;;;17.70;7.90;;;18.90;56.50;;;;;;6242722;23;20003;-75
2021/06/05 11:00:51;;;;;;;12.45;7.00;;;19.00;56.50;;;;;;6243489;23;20453;-75
2021/06/05 11:03:27;;;;;;;10.25;5.80;;;19.10;55.90;;;;;;6242458;23;20004;-75
2021/06/05 11:06:04;;;;;;;9.95;5.82;;;19.10;56.10;;;;;;6216090;23;20004;-75
2021/06/05 11:08:52;;;;;;;9.27;5.93;;;19.20;54.90;;;;;;6242567;23;20327;-75
2021/06/05 11:11:39;;;;;;;12.05;5.85;;;19.30;55.20;;;;;;6242150;23;20789;-75
2021/06/05 11:14:42;;;;;;;11.88;6.18;;;19.40;54.50;;;;;;6242733;23;20364;-75
2021/06/05 11:17:25;;;;;;;20.45;6.72;;;19.50;54.00;;;;;;6242819;23;20031;-75
2021/06/05 11:20:14;;;;;;;9.38;5.53;;;19.50;53.90;;;;;;6236453;23;20004;-75
2021/06/05 11:22:53;;;;;;;13.50;7.55;;;19.60;53.50;;;;;;6242948;23;20083;-75
2021/06/05 11:25:43;;;;;;;15.35;7.07;;;19.70;54.20;;;;;;6242376;23;20004;-75
2021/06/05 11:28:39;;;;;;;10.75;6.03;;;19.80;53.30;;;;;;6242359;23;20091;-73
2021/06/05 11:31:54;;;;;;;14.15;6.47;;;19.90;52.90;;;;;;6217862;23;20012;-76
2021/06/05 11:34:29;;;;;;;9.18;6.30;;;19.90;52.90;;;;;;6134567;23;20037;-76
2021/06/05 11:37:18;;;;;;;11.25;6.30;;;20.00;51.90;;;;;;6242603;23;20004;-75
2021/06/05 11:39:54;;;;;;;15.30;6.22;;;20.10;52.20;;;;;;6239520;23;20011;-76
2021/06/05 11:42:20;;;;;;;13.73;6.35;;;20.10;51.80;;;;;;6241994;23;20008;-76
2021/06/05 11:44:50;;;;;;;9.57;6.20;;;20.20;52.30;;;;;;6243030;23;20016;-76
2021/06/05 11:47:16;;;;;;;12.07;5.90;;;20.30;52.30;;;;;;6241976;23;20030;-76
2021/06/05 11:49:48;;;;;;;16.60;6.63;;;20.30;52.50;;;;;;6243146;23;20011;-76
2021/06/05 11:52:26;;;;;;;17.48;7.13;;;20.40;53.40;;;;;;6242642;23;20323;-75
2021/06/05 11:54:55;;;;;;;19.60;7.45;;;20.50;54.50;;;;;;6242039;23;20007;-76
2021/06/05 11:57:31;;;;;;;18.83;7.93;;;20.50;55.00;;;;;;6243414;23;19996;-71
2021/06/05 12:00:05;;;;;;;16.02;7.28;;;20.60;55.70;;;;;;6241628;23;20005;-70
2021/06/05 12:02:37;;;;;;;18.03;7.23;;;20.60;56.30;;;;;;6242716;23;19996;-70
2021/06/05 12:05:11;;;;;;;16.73;7.40;;;20.70;55.90;;;;;;6215288;23;20321;-75
2021/06/05 12:08:18;;;;;;;16.90;7.15;;;20.70;55.70;;;;;;6241898;23;20000;-75
2021/06/05 12:11:24;;;;;;;21.60;7.97;;;20.80;56.20;;;;;;6242750;23;20007;-75
2021/06/05 12:14:15;;;;;;;21.67;7.68;;;20.80;56.10;;;;;;6240269;23;20070;-74
2021/06/05 12:17:27;;;;;;;17.63;8.20;;;20.90;56.40;;;;;;6240017;23;20004;-71
2021/06/05 12:20:19;;;;;;;20.70;7.10;;;21.00;56.40;;;;;;6235438;23;20012;-73
2021/06/05 12:23:24;;;;;;;14.48;6.95;;;21.00;56.20;;;;;;6242728;23;20000;-72
2021/06/05 12:26:36;;;;;;;18.38;7.97;;;21.10;56.20;;;;;;6241197;23;20066;-70
2021/06/05 12:29:51;;;;;;;20.23;6.65;;;21.10;55.90;;;;;;6211904;23;20020;-71
2021/06/05 12:32:37;;;;;;;22.40;8.13;;;21.10;55.20;;;;;;6212291;23;20423;-74
2021/06/05 12:36:02;;;;;;;14.07;6.63;;;21.20;54.10;;;;;;6211371;23;20001;-73
2021/06/05 12:39:14;;;;;;;15.98;5.78;;;21.30;53.20;;;;;;6210293;23;20012;-71
2021/06/05 12:42:20;;;;;;;12.00;6.47;;;21.30;54.10;;;;;;6209351;23;20004;-70
2021/06/05 12:45:33;;;;;;;18.05;6.88;;;21.30;53.60;;;;;;6211841;23;20012;-71
2021/06/05 12:48:39;;;;;;;15.07;5.57;;;21.40;52.70;;;;;;6211159;23;20012;-71
2021/06/05 12:51:45;;;;;;;15.85;5.72;;;21.40;51.90;;;;;;6210983;23;20361;-72
2021/06/05 12:54:24;;;;;;;13.15;5.25;;;21.50;51.60;;;;;;6211805;23;20008;-69
2021/06/05 12:56:50;;;;;;;12.77;5.85;;;21.50;51.60;;;;;;6211757;23;20004;-72
2021/06/05 12:59:32;;;;;;;13.63;5.28;;;21.50;52.50;;;;;;6211072;23;20289;-71
2021/06/05 13:02:17;;;;;;;15.65;6.53;;;21.50;51.40;;;;;;6211872;23;20039;-71
2021/06/05 13:04:43;;;;;;;;;;;21.60;51.60;;;;;;6211906;23;20015;-73
2021/06/05 13:07:10;;;;;;;50.60;28.33;;;21.60;50.90;;;;;;6211640;23;20240;-71
2021/06/05 13:09:43;;;;;;;13.55;10.40;;;21.60;50.00;;;;;;6210101;23;20000;-71
2021/06/05 13:12:21;;;;;;;14.50;7.60;;;21.60;49.00;;;;;;6211624;23;20305;-73